createdAt,value
2019-04-16T00:01:58.548Z,11.87
2019-04-16T00:07:19.100Z,10.93
2019-04-16T00:12:44.101Z,11.77
2019-04-16T00:17:47.252Z,11.23
2019-04-16T00:22:56.800Z,10.50
2019-04-16T00:27:59.907Z,10.97
2019-04-16T00:33:07.810Z,10.70
2019-04-16T00:38:10.339Z,10.97
2019-04-16T00:43:15.856Z,11.60
2019-04-16T00:48:17.909Z,11.20
2019-04-16T00:53:20.106Z,10.90
2019-04-16T00:58:23.919Z,11.00
2019-04-16T01:03:26.195Z,11.37
2019-04-16T01:08:30.302Z,10.70
2019-04-16T01:13:37.687Z,11.00
2019-04-16T01:18:39.704Z,11.47
2019-04-16T01:23:48.364Z,11.90
2019-04-16T01:28:54.460Z,12.23
2019-04-16T01:34:04.922Z,10.83
2019-04-16T01:39:17.343Z,12.07
2019-04-16T01:44:12.264Z,11.07
2019-04-16T01:49:14.254Z,11.10
2019-04-16T01:54:22.839Z,11.37
2019-04-16T01:59:24.535Z,11.73
2019-04-16T02:04:26.850Z,11.80
2019-04-16T02:09:34.186Z,11.27
2019-04-16T02:14:32.769Z,11.33
2019-04-16T02:19:36.887Z,11.47
2019-04-16T02:24:40.195Z,11.10
2019-04-16T02:29:46.488Z,11.90
2019-04-16T02:34:48.647Z,11.40
2019-04-16T02:39:50.659Z,11.47
2019-04-16T02:44:52.785Z,11.57
2019-04-16T02:49:56.834Z,11.57
2019-04-16T02:55:21.937Z,11.27
2019-04-16T03:00:49.154Z,11.33
2019-04-16T03:05:53.029Z,11.77
2019-04-16T03:10:55.034Z,11.70
2019-04-16T03:16:22.762Z,11.80
2019-04-16T03:21:29.413Z,12.77
2019-04-16T03:26:31.705Z,12.70
2019-04-16T03:31:35.320Z,12.03
2019-04-16T03:36:40.287Z,12.57
2019-04-16T03:41:42.327Z,12.77
2019-04-16T03:46:46.900Z,12.37
2019-04-16T03:51:48.428Z,12.67
2019-04-16T03:56:50.539Z,12.50
2019-04-16T04:01:53.869Z,12.47
2019-04-16T04:07:00.093Z,12.53
2019-04-16T04:12:04.197Z,12.23
2019-04-16T04:17:07.294Z,12.30
2019-04-16T04:22:14.857Z,12.37
2019-04-16T04:27:19.371Z,12.33
2019-04-16T04:32:20.986Z,12.87
2019-04-16T04:37:22.983Z,13.30
2019-04-16T04:42:25.647Z,12.30
2019-04-16T04:47:28.936Z,12.60
2019-04-16T04:52:32.824Z,13.40
2019-04-16T04:57:34.913Z,11.97
2019-04-16T05:02:37.026Z,12.10
2019-04-16T05:07:39.029Z,12.10
2019-04-16T05:12:41.084Z,12.70
2019-04-16T05:17:45.829Z,12.07
2019-04-16T05:22:50.592Z,13.43
2019-04-16T05:27:51.811Z,12.23
2019-04-16T05:32:54.025Z,12.60
2019-04-16T05:37:56.092Z,12.53
2019-04-16T05:42:59.738Z,12.93
2019-04-16T05:48:01.806Z,13.37
2019-04-16T05:53:08.241Z,12.33
2019-04-16T05:58:12.798Z,13.03
2019-04-16T06:03:15.150Z,13.03
2019-04-16T06:08:17.168Z,12.17
2019-04-16T06:13:47.989Z,13.23
2019-04-16T06:19:08.536Z,12.30
2019-04-16T06:24:32.351Z,12.80
2019-04-16T06:30:06.825Z,13.10
2019-04-16T06:35:27.018Z,13.13
2019-04-16T06:41:03.056Z,12.20
2019-04-16T06:46:23.446Z,11.87
2019-04-16T06:51:47.669Z,12.53
2019-04-16T06:57:09.610Z,12.30
2019-04-16T07:02:32.525Z,12.53
2019-04-16T07:07:52.964Z,12.57
2019-04-16T07:12:55.088Z,13.00
2019-04-16T07:17:57.194Z,12.63
2019-04-16T07:22:59.610Z,12.70
2019-04-16T07:28:18.182Z,12.33
2019-04-16T07:33:55.062Z,13.73
2019-04-16T07:39:29.541Z,12.43
2019-04-16T07:44:36.420Z,12.00
2019-04-16T07:50:02.583Z,12.80
2019-04-16T07:55:38.054Z,12.40
2019-04-16T08:00:41.393Z,12.53
2019-04-16T08:05:49.385Z,12.57
2019-04-16T08:10:51.387Z,12.90
2019-04-16T08:15:56.607Z,12.33
2019-04-16T08:21:02.014Z,13.30
2019-04-16T08:26:04.906Z,12.93
2019-04-16T08:31:13.102Z,12.57
2019-04-16T08:36:15.309Z,12.67
2019-04-16T08:41:21.324Z,12.93
2019-04-16T08:46:21.774Z,13.13
2019-04-16T08:51:30.580Z,12.43
2019-04-16T08:56:27.810Z,12.63
2019-04-16T09:01:32.494Z,13.10
2019-04-16T09:06:42.709Z,12.83
2019-04-16T09:11:50.918Z,13.73
2019-04-16T09:17:03.636Z,13.53
2019-04-16T09:22:05.784Z,14.30
2019-04-16T09:27:33.872Z,13.20
2019-04-16T09:32:48.084Z,13.03
2019-04-16T09:37:54.462Z,14.33
2019-04-16T09:43:00.137Z,14.95
2019-04-16T09:48:03.960Z,13.60
2019-04-16T09:53:06.482Z,15.50
2019-04-16T09:58:34.926Z,14.77
2019-04-16T10:03:40.319Z,14.27
2019-04-16T10:08:44.948Z,14.30
2019-04-16T10:13:49.526Z,14.30
2019-04-16T10:18:53.868Z,14.63
2019-04-16T10:24:06.554Z,15.67
2019-04-16T10:29:12.351Z,14.10
2019-04-16T10:34:14.386Z,14.50
2019-04-16T10:39:25.245Z,15.13
2019-04-16T10:44:50.379Z,15.87
2019-04-16T10:49:59.257Z,15.67
2019-04-16T10:55:19.193Z,14.57
2019-04-16T11:00:44.011Z,16.10
2019-04-16T11:06:06.050Z,16.33
2019-04-16T11:11:08.102Z,16.47
2019-04-16T11:16:14.689Z,15.63
2019-04-16T11:21:17.076Z,16.10
2019-04-16T11:26:19.409Z,15.60
2019-04-16T11:31:22.357Z,16.67
2019-04-16T11:36:30.574Z,16.73
2019-04-16T11:41:31.334Z,16.13
2019-04-16T11:46:36.375Z,17.10
2019-04-16T11:51:38.350Z,16.97
2019-04-16T11:56:43.321Z,17.27
2019-04-16T12:01:53.605Z,17.87
2019-04-16T12:07:35.619Z,16.40
2019-04-16T12:12:49.795Z,18.07
2019-04-16T12:18:11.420Z,18.10
2019-04-16T12:23:33.351Z,17.97
2019-04-16T12:29:14.469Z,18.30
2019-04-16T12:34:34.771Z,18.23
2019-04-16T12:39:58.368Z,17.37
2019-04-16T12:45:35.456Z,18.03
2019-04-16T12:50:58.521Z,18.53
2019-04-16T12:56:25.452Z,18.80
2019-04-16T13:01:37.251Z,17.97
2019-04-16T13:06:46.034Z,18.30
2019-04-16T13:12:08.467Z,19.00
2019-04-16T13:17:22.526Z,18.20
2019-04-16T13:22:30.614Z,18.60
2019-04-16T13:27:37.776Z,16.07
2019-04-16T13:32:39.775Z,18.57
2019-04-16T13:37:41.884Z,17.73
2019-04-16T13:42:45.223Z,18.73
2019-04-16T13:47:54.819Z,18.17
2019-04-16T13:53:02.724Z,18.60
2019-04-16T13:58:39.432Z,18.47
2019-04-16T14:03:41.493Z,21.73
2019-04-16T14:08:43.532Z,19.43
2019-04-16T14:13:49.986Z,19.60
2019-04-16T14:18:50.086Z,18.63
2019-04-16T14:23:52.237Z,18.87
2019-04-16T14:28:56.943Z,19.27
2019-04-16T14:34:10.170Z,18.90
2019-04-16T14:39:28.789Z,19.73
2019-04-16T14:44:38.694Z,17.10
2019-04-16T14:49:43.546Z,18.57
2019-04-16T14:55:09.487Z,19.90
2019-04-16T15:00:26.122Z,19.23
2019-04-16T15:05:56.888Z,19.53
2019-04-16T15:11:28.951Z,20.37
2019-04-16T15:16:51.207Z,19.77
2019-04-16T15:22:15.553Z,20.60
2019-04-16T15:27:52.573Z,20.37
2019-04-16T15:33:23.175Z,19.57
2019-04-16T15:38:31.425Z,19.93
2019-04-16T15:43:50.920Z,20.37
2019-04-16T15:49:16.058Z,20.50
2019-04-16T15:54:26.982Z,21.43
2019-04-16T15:59:42.521Z,21.40
2019-04-16T16:04:51.943Z,20.93
2019-04-16T16:10:13.738Z,20.83
2019-04-16T16:15:15.855Z,20.23
2019-04-16T16:20:19.333Z,19.73
2019-04-16T16:25:24.387Z,20.83
2019-04-16T16:30:26.396Z,20.57
2019-04-16T16:35:29.642Z,22.10
2019-04-16T16:40:31.644Z,21.87
2019-04-16T16:45:59.063Z,22.03
2019-04-16T16:51:01.183Z,21.03
2019-04-16T16:56:09.142Z,22.93
2019-04-16T17:01:33.355Z,21.70
2019-04-16T17:06:34.965Z,21.57
2019-04-16T17:11:37.079Z,23.20
2019-04-16T17:16:39.718Z,20.80
2019-04-16T17:21:41.804Z,21.00
2019-04-16T17:26:46.901Z,21.63
2019-04-16T17:31:49.577Z,21.63
2019-04-16T17:36:51.709Z,21.17
2019-04-16T17:42:05.008Z,20.60
2019-04-16T17:47:32.418Z,21.07
2019-04-16T17:52:34.611Z,20.10
2019-04-16T17:57:46.321Z,22.93
2019-04-16T18:03:11.005Z,21.87
2019-04-16T18:08:31.447Z,21.63
2019-04-16T18:13:55.987Z,20.37
2019-04-16T18:19:12.415Z,20.33
2019-04-16T18:24:32.603Z,20.57
2019-04-16T18:29:44.866Z,20.37
2019-04-16T18:35:24.852Z,20.53
2019-04-16T18:40:38.609Z,21.33
2019-04-16T18:46:04.164Z,20.10
2019-04-16T18:51:06.935Z,20.53
2019-04-16T18:56:08.978Z,20.83
2019-04-16T19:01:14.804Z,22.37
2019-04-16T19:06:16.917Z,20.53
2019-04-16T19:11:20.564Z,19.70
2019-04-16T19:16:23.101Z,20.80
2019-04-16T19:21:25.166Z,20.77
2019-04-16T19:26:30.358Z,21.57
2019-04-16T19:31:32.511Z,20.30
2019-04-16T19:36:34.740Z,19.97
2019-04-16T19:41:36.878Z,20.37
2019-04-16T19:46:38.911Z,21.20
2019-04-16T19:51:45.378Z,21.33
2019-04-16T19:56:51.054Z,21.33
2019-04-16T20:01:51.448Z,22.30
2019-04-16T20:06:59.734Z,20.77
2019-04-16T20:11:58.167Z,21.03
2019-04-16T20:17:03.167Z,22.47
2019-04-16T20:22:05.191Z,20.60
2019-04-16T20:27:07.234Z,21.53
2019-04-16T20:32:09.301Z,20.30
2019-04-16T20:37:11.337Z,20.13
2019-04-16T20:42:17.823Z,18.53
2019-04-16T20:47:19.923Z,18.97
2019-04-16T20:52:25.165Z,19.07
2019-04-16T20:57:27.216Z,19.37
2019-04-16T21:02:32.129Z,17.80
2019-04-16T21:07:34.123Z,18.20
2019-04-16T21:12:36.270Z,18.87
2019-04-16T21:17:39.345Z,17.67
2019-04-16T21:22:43.336Z,17.67
2019-04-16T21:28:02.955Z,16.70
2019-04-16T21:33:17.647Z,16.83
2019-04-16T21:38:46.171Z,15.13
2019-04-16T21:43:51.027Z,14.00
2019-04-16T21:48:56.010Z,13.90
2019-04-16T21:53:58.746Z,13.13
2019-04-16T21:59:04.730Z,13.27
2019-04-16T22:04:14.343Z,12.30
2019-04-16T22:09:14.746Z,11.80
2019-04-16T22:14:21.977Z,12.10
2019-04-16T22:19:25.811Z,12.47
2019-04-16T22:24:28.171Z,11.93
2019-04-16T22:29:30.261Z,12.27
2019-04-16T22:34:32.396Z,12.53
2019-04-16T22:39:51.210Z,12.47
2019-04-16T22:45:16.358Z,12.73
2019-04-16T22:50:18.369Z,12.23
2019-04-16T22:55:24.575Z,13.00
2019-04-16T23:00:33.868Z,12.30
2019-04-16T23:05:35.908Z,12.80
2019-04-16T23:10:37.939Z,12.43
2019-04-16T23:15:42.805Z,12.47
2019-04-16T23:20:44.862Z,12.40
2019-04-16T23:25:46.927Z,14.10
2019-04-16T23:30:51.284Z,13.07
2019-04-16T23:35:55.416Z,14.03
2019-04-16T23:40:57.466Z,14.13
2019-04-16T23:46:22.009Z,14.20
2019-04-16T23:51:52.333Z,14.13
2019-04-16T23:57:00.868Z,14.90
